createdAt,value
2022-12-09T00:01:08.095Z,10.07
2022-12-09T00:03:36.882Z,9.95
2022-12-09T00:06:09.429Z,9.95
2022-12-09T00:08:37.744Z,9.13
2022-12-09T00:11:06.684Z,9.52
2022-12-09T00:13:36.070Z,9.90
2022-12-09T00:16:07.346Z,8.88
2022-12-09T00:18:35.368Z,10.63
2022-12-09T00:21:12.884Z,9.05
2022-12-09T00:23:40.847Z,9.50
2022-12-09T00:26:08.898Z,9.43
2022-12-09T00:28:38.157Z,9.65
2022-12-09T00:31:07.025Z,10.57
2022-12-09T00:33:36.133Z,9.25
2022-12-09T00:36:08.311Z,9.07
2022-12-09T00:38:36.264Z,9.85
2022-12-09T00:41:04.472Z,9.38
2022-12-09T00:43:32.241Z,9.23
2022-12-09T00:46:02.081Z,9.40
2022-12-09T00:48:30.959Z,10.02
2022-12-09T00:50:58.898Z,9.07
2022-12-09T00:53:26.907Z,10.07
2022-12-09T00:55:54.649Z,9.80
2022-12-09T00:58:22.392Z,9.55
2022-12-09T01:00:50.913Z,10.10
2022-12-09T01:03:20.907Z,9.50
2022-12-09T01:05:49.352Z,8.93
2022-12-09T01:08:17.547Z,9.88
2022-12-09T01:10:47.053Z,10.85
2022-12-09T01:13:16.519Z,10.10
2022-12-09T01:15:44.558Z,9.10
2022-12-09T01:18:13.544Z,10.57
2022-12-09T01:20:42.811Z,9.57
2022-12-09T01:23:10.534Z,9.38
2022-12-09T01:25:38.968Z,9.40
2022-12-09T01:28:06.766Z,9.57
2022-12-09T01:30:34.490Z,9.25
2022-12-09T01:33:02.228Z,9.48
2022-12-09T01:35:30.102Z,10.00
2022-12-09T01:37:59.309Z,10.25
2022-12-09T01:40:27.076Z,9.15
2022-12-09T01:42:54.831Z,9.90
2022-12-09T01:45:44.173Z,9.80
2022-12-09T01:48:14.685Z,9.00
2022-12-09T01:50:47.439Z,9.60
2022-12-09T01:53:19.599Z,9.25
2022-12-09T01:55:47.458Z,9.23
2022-12-09T01:58:16.667Z,9.43
2022-12-09T02:00:45.738Z,9.13
2022-12-09T02:03:13.849Z,10.07
2022-12-09T02:05:41.805Z,9.40
2022-12-09T02:08:13.121Z,8.90
2022-12-09T02:10:53.007Z,9.38
2022-12-09T02:13:26.873Z,9.10
2022-12-09T02:15:56.124Z,9.45
2022-12-09T02:18:30.869Z,9.20
2022-12-09T02:21:02.864Z,10.32
2022-12-09T02:23:38.741Z,9.65
2022-12-09T02:26:17.574Z,10.43
2022-12-09T02:29:05.039Z,9.40
2022-12-09T02:34:15.994Z,9.73
2022-12-09T02:36:53.332Z,10.15
2022-12-09T02:39:25.019Z,10.45
2022-12-09T02:41:54.878Z,11.35
2022-12-09T02:44:25.235Z,10.75
2022-12-09T02:46:54.574Z,12.05
2022-12-09T02:49:26.208Z,12.52
2022-12-09T02:51:55.391Z,12.75
2022-12-09T02:54:24.718Z,11.68
2022-12-09T02:56:57.071Z,11.63
2022-12-09T02:59:25.123Z,10.88
2022-12-09T03:02:01.894Z,11.52
2022-12-09T03:04:33.024Z,11.77
2022-12-09T03:07:13.206Z,12.48
2022-12-09T03:09:46.456Z,12.30
2022-12-09T03:12:18.832Z,13.50
2022-12-09T03:14:50.785Z,14.25
2022-12-09T03:17:22.908Z,13.23
2022-12-09T03:19:56.155Z,13.52
2022-12-09T03:22:28.771Z,13.95
2022-12-09T03:25:00.725Z,14.10
2022-12-09T03:27:35.473Z,14.68
2022-12-09T03:30:07.556Z,14.85
2022-12-09T03:32:38.698Z,15.07
2022-12-09T03:35:14.465Z,15.63
2022-12-09T03:37:45.199Z,15.77
2022-12-09T03:40:17.979Z,15.80
2022-12-09T03:42:52.022Z,15.73
2022-12-09T03:45:23.630Z,16.33
2022-12-09T03:47:52.260Z,15.68
2022-12-09T03:50:23.363Z,14.93
2022-12-09T03:52:54.769Z,16.02
2022-12-09T03:55:34.935Z,15.70
2022-12-09T03:58:07.175Z,16.70
2022-12-09T04:00:37.605Z,15.63
2022-12-09T04:03:05.773Z,16.15
2022-12-09T04:05:35.927Z,17.52
2022-12-09T04:08:03.705Z,15.95
2022-12-09T04:10:31.397Z,16.50
2022-12-09T04:12:59.088Z,16.92
2022-12-09T04:15:26.925Z,19.08
2022-12-09T04:17:54.886Z,17.35
2022-12-09T04:20:22.719Z,17.90
2022-12-09T04:22:52.254Z,16.77
2022-12-09T04:25:19.929Z,17.83
2022-12-09T04:27:47.964Z,17.55
2022-12-09T04:30:15.950Z,19.25
2022-12-09T04:32:44.120Z,18.98
2022-12-09T04:35:12.028Z,18.98
2022-12-09T04:37:39.681Z,18.50
2022-12-09T04:40:10.284Z,18.73
2022-12-09T04:42:38.451Z,19.50
2022-12-09T04:45:07.724Z,18.98
2022-12-09T04:47:35.591Z,18.83
2022-12-09T04:50:05.079Z,19.35
2022-12-09T04:52:33.778Z,19.95
2022-12-09T04:55:01.460Z,19.42
2022-12-09T04:57:30.872Z,20.02
2022-12-09T04:59:58.628Z,19.58
2022-12-09T05:02:26.796Z,19.95
2022-12-09T05:04:54.935Z,18.60
2022-12-09T05:07:23.420Z,19.20
2022-12-09T05:09:51.731Z,19.45
2022-12-09T05:12:19.464Z,19.63
2022-12-09T05:14:48.507Z,20.15
2022-12-09T05:17:16.586Z,20.55
2022-12-09T05:19:44.814Z,19.40
2022-12-09T05:22:12.871Z,19.17
2022-12-09T05:24:41.144Z,19.27
2022-12-09T05:27:09.275Z,20.80
2022-12-09T05:29:37.017Z,18.77
2022-12-09T05:32:06.444Z,20.38
2022-12-09T05:34:34.577Z,20.63
2022-12-09T05:37:02.418Z,19.83
2022-12-09T05:39:30.403Z,20.23
2022-12-09T05:41:58.266Z,20.27
2022-12-09T05:44:26.250Z,22.25
2022-12-09T05:46:54.249Z,20.35
2022-12-09T05:49:23.773Z,21.10
2022-12-09T05:51:52.024Z,20.23
2022-12-09T05:54:20.206Z,20.80
2022-12-09T05:56:48.950Z,20.55
2022-12-09T05:59:16.985Z,21.42
2022-12-09T06:01:45.123Z,19.50
2022-12-09T06:04:13.116Z,19.77
2022-12-09T06:06:42.612Z,19.85
2022-12-09T06:09:12.174Z,19.48
2022-12-09T06:11:41.227Z,20.05
2022-12-09T06:14:10.162Z,20.40
2022-12-09T06:16:39.099Z,19.33
2022-12-09T06:19:07.654Z,20.33
2022-12-09T06:21:35.857Z,19.27
2022-12-09T06:24:06.292Z,19.05
2022-12-09T06:26:34.416Z,19.27
2022-12-09T06:29:02.510Z,20.33
2022-12-09T06:31:31.033Z,18.98
2022-12-09T06:33:59.979Z,20.15
2022-12-09T06:36:30.305Z,20.17
2022-12-09T06:39:04.544Z,20.02
2022-12-09T06:41:37.300Z,20.95
2022-12-09T06:44:05.513Z,19.95
2022-12-09T06:46:33.777Z,17.63
2022-12-09T06:49:01.786Z,19.20
2022-12-09T06:51:30.068Z,19.17
2022-12-09T06:53:58.105Z,18.80
2022-12-09T06:56:26.236Z,18.50
2022-12-09T06:58:55.459Z,19.45
2022-12-09T07:01:25.919Z,17.33
2022-12-09T07:03:57.147Z,18.42
2022-12-09T07:06:29.804Z,18.88
2022-12-09T07:08:59.958Z,19.58
2022-12-09T07:11:28.272Z,19.35
2022-12-09T07:13:57.757Z,18.70
2022-12-09T07:16:26.671Z,18.83
2022-12-09T07:18:54.775Z,21.55
2022-12-09T07:21:24.819Z,20.77
2022-12-09T07:23:53.977Z,20.02
2022-12-09T07:26:22.832Z,21.27
2022-12-09T07:28:51.314Z,21.13
2022-12-09T07:31:22.667Z,21.15
2022-12-09T07:33:51.688Z,21.77
2022-12-09T07:36:21.527Z,21.42
2022-12-09T07:38:50.327Z,21.65
2022-12-09T07:41:19.398Z,20.35
2022-12-09T07:43:48.192Z,21.13
2022-12-09T07:46:17.590Z,20.40
2022-12-09T07:48:48.124Z,22.25
2022-12-09T07:51:17.139Z,21.50
2022-12-09T07:53:45.314Z,20.92
2022-12-09T07:56:15.706Z,20.23
2022-12-09T07:58:45.251Z,20.80
2022-12-09T08:01:15.447Z,21.25
2022-12-09T08:03:43.695Z,20.90
2022-12-09T08:06:15.118Z,21.00
2022-12-09T08:08:44.012Z,21.35
2022-12-09T08:11:14.179Z,21.13
2022-12-09T08:13:43.149Z,20.83
2022-12-09T08:16:13.585Z,20.90
2022-12-09T08:18:43.106Z,20.05
2022-12-09T08:21:14.745Z,21.27
2022-12-09T08:23:42.722Z,22.30
2022-12-09T08:26:12.038Z,21.02
2022-12-09T08:28:40.356Z,21.55
2022-12-09T08:31:10.182Z,20.63
2022-12-09T08:33:38.991Z,21.40
2022-12-09T08:36:11.646Z,20.80
2022-12-09T08:38:41.367Z,20.77
2022-12-09T08:41:11.229Z,22.30
2022-12-09T08:43:39.526Z,20.50
2022-12-09T08:46:07.980Z,20.52
2022-12-09T08:48:37.843Z,21.42
2022-12-09T08:51:06.533Z,20.80
2022-12-09T08:53:34.452Z,19.17
2022-12-09T08:56:11.749Z,19.98
2022-12-09T08:58:40.311Z,18.95
2022-12-09T09:01:08.984Z,19.75
2022-12-09T09:03:37.397Z,18.25
2022-12-09T09:06:10.737Z,18.67
2022-12-09T09:08:39.570Z,18.70
2022-12-09T09:11:11.527Z,18.45
2022-12-09T09:13:40.357Z,17.27
2022-12-09T09:16:11.220Z,18.58
2022-12-09T09:18:39.497Z,18.42
2022-12-09T09:21:08.336Z,17.35
2022-12-09T09:23:36.704Z,18.88
2022-12-09T09:26:04.908Z,17.70
2022-12-09T09:28:34.927Z,17.65
2022-12-09T09:31:05.399Z,18.52
2022-12-09T09:33:33.435Z,15.80
2022-12-09T09:36:09.675Z,18.73
2022-12-09T09:38:38.715Z,18.85
2022-12-09T09:41:16.629Z,17.00
2022-12-09T09:43:46.464Z,16.10
2022-12-09T09:46:19.895Z,17.35
2022-12-09T09:48:48.860Z,16.67
2022-12-09T09:51:19.885Z,16.75
2022-12-09T09:53:53.281Z,16.63
2022-12-09T09:56:29.279Z,16.80
2022-12-09T09:59:11.344Z,17.98
2022-12-09T10:01:39.613Z,16.30
2022-12-09T10:04:15.605Z,16.95
2022-12-09T10:06:49.899Z,16.35
2022-12-09T10:09:23.174Z,16.38
2022-12-09T10:12:02.019Z,17.05
2022-12-09T10:14:42.807Z,16.63
2022-12-09T10:17:24.132Z,16.20
2022-12-09T10:19:56.157Z,15.80
2022-12-09T10:22:28.060Z,15.85
2022-12-09T10:24:58.405Z,16.80
2022-12-09T10:27:31.520Z,17.45
2022-12-09T10:30:03.676Z,17.73
2022-12-09T10:32:33.775Z,15.75
2022-12-09T10:35:13.294Z,16.75
2022-12-09T10:37:41.625Z,15.23
2022-12-09T10:40:21.974Z,16.67
2022-12-09T10:43:09.626Z,16.33
2022-12-09T10:46:16.948Z,14.85
2022-12-09T10:48:38.670Z,15.25
2022-12-09T10:51:14.047Z,15.02
2022-12-09T10:53:48.700Z,16.45
2022-12-09T10:56:21.933Z,16.08
2022-12-09T10:58:50.195Z,14.15
2022-12-09T11:01:19.539Z,15.77
2022-12-09T11:03:53.645Z,15.38
2022-12-09T11:06:27.282Z,15.25
2022-12-09T11:08:58.225Z,15.88
2022-12-09T11:11:45.366Z,15.00
2022-12-09T11:14:23.225Z,15.25
2022-12-09T11:16:54.660Z,15.23
2022-12-09T11:19:34.177Z,15.13
2022-12-09T11:22:36.454Z,13.60
2022-12-09T11:25:20.096Z,14.43
2022-12-09T11:27:52.273Z,15.52
2022-12-09T11:30:22.631Z,12.95
2022-12-09T11:33:01.204Z,14.32
2022-12-09T11:35:37.409Z,13.15
2022-12-09T11:38:17.025Z,12.07
2022-12-09T11:40:45.369Z,12.98
2022-12-09T11:43:13.310Z,13.85
2022-12-09T11:45:41.605Z,14.52
2022-12-09T11:48:35.099Z,11.82
2022-12-09T11:51:06.947Z,12.63
2022-12-09T11:53:40.694Z,12.50
2022-12-09T11:56:17.039Z,13.05
2022-12-09T11:58:51.227Z,12.63
2022-12-09T12:01:24.585Z,12.90
2022-12-09T12:03:56.787Z,13.55
2022-12-09T12:06:26.838Z,13.10
2022-12-09T12:08:59.018Z,13.18
2022-12-09T12:11:35.602Z,13.13
2022-12-09T12:14:11.519Z,13.65
2022-12-09T12:16:48.973Z,13.93
2022-12-09T12:19:23.323Z,13.05
2022-12-09T12:22:09.485Z,13.68
2022-12-09T12:24:55.676Z,12.90
2022-12-09T12:27:39.038Z,13.25
2022-12-09T12:30:11.041Z,13.93
2022-12-09T12:33:11.874Z,13.57
2022-12-09T12:35:56.832Z,12.73
2022-12-09T12:38:40.819Z,13.07
2022-12-09T12:41:15.018Z,13.02
2022-12-09T12:44:26.952Z,11.98
2022-12-09T12:47:03.198Z,12.82
2022-12-09T12:49:43.729Z,13.20
2022-12-09T12:55:27.162Z,13.15
2022-12-09T12:58:06.041Z,13.85
2022-12-09T13:00:43.188Z,14.07
2022-12-09T13:03:22.958Z,12.30
2022-12-09T13:05:53.562Z,13.88
2022-12-09T13:08:27.319Z,13.57
2022-12-09T13:10:58.159Z,13.25
2022-12-09T13:13:30.320Z,13.50
2022-12-09T13:16:03.674Z,13.02
2022-12-09T13:18:35.932Z,12.20
2022-12-09T13:21:05.848Z,12.48
2022-12-09T13:23:50.532Z,13.60
2022-12-09T13:26:27.978Z,14.57
2022-12-09T13:29:02.687Z,12.30
2022-12-09T13:31:32.944Z,13.30
2022-12-09T13:34:16.566Z,13.20
2022-12-09T13:36:46.578Z,11.75
2022-12-09T13:39:53.914Z,12.23
2022-12-09T13:42:54.186Z,13.02
2022-12-09T13:45:27.869Z,12.23
2022-12-09T13:47:56.454Z,12.30
2022-12-09T13:50:27.328Z,11.90
2022-12-09T13:52:57.787Z,12.45
2022-12-09T13:55:38.176Z,11.63
2022-12-09T13:58:55.098Z,12.95
2022-12-09T14:01:27.465Z,12.48
2022-12-09T14:04:08.092Z,12.60
2022-12-09T14:06:41.475Z,11.77
2022-12-09T14:09:24.936Z,10.90
2022-12-09T14:11:54.899Z,12.52
2022-12-09T14:14:48.773Z,12.13
2022-12-09T14:17:34.181Z,12.23
2022-12-09T14:20:05.542Z,11.57
2022-12-09T14:22:35.053Z,11.77
2022-12-09T14:25:36.127Z,12.00
2022-12-09T14:28:37.679Z,12.15
2022-12-09T14:31:08.942Z,13.18
2022-12-09T14:33:39.101Z,11.77
2022-12-09T14:36:21.187Z,12.48
2022-12-09T14:39:25.368Z,11.77
2022-12-09T14:41:50.826Z,11.93
2022-12-09T14:44:30.189Z,11.13
2022-12-09T14:47:15.221Z,12.50
2022-12-09T14:49:49.222Z,10.52
2022-12-09T14:52:23.955Z,10.70
2022-12-09T14:54:54.827Z,11.88
2022-12-09T14:57:25.743Z,11.55
2022-12-09T14:59:56.801Z,12.05
2022-12-09T15:02:26.725Z,11.07
2022-12-09T15:04:57.081Z,11.10
2022-12-09T15:07:26.715Z,11.60
2022-12-09T15:09:57.395Z,11.38
2022-12-09T15:12:30.439Z,12.15
2022-12-09T15:15:04.536Z,11.80
2022-12-09T15:17:37.716Z,11.82
2022-12-09T15:20:06.783Z,11.40
2022-12-09T15:22:35.703Z,12.00
2022-12-09T15:25:04.464Z,12.02
2022-12-09T15:27:32.479Z,11.75
2022-12-09T15:30:01.696Z,11.57
2022-12-09T15:32:31.590Z,11.88
2022-12-09T15:35:16.443Z,11.77
2022-12-09T15:37:45.060Z,12.23
2022-12-09T15:40:16.928Z,12.20
2022-12-09T15:42:47.647Z,11.65
2022-12-09T15:45:19.867Z,11.32
2022-12-09T15:47:53.277Z,11.27
2022-12-09T15:50:24.257Z,12.00
2022-12-09T15:52:54.188Z,12.40
2022-12-09T15:55:26.714Z,11.98
2022-12-09T15:57:57.137Z,11.50
2022-12-09T16:00:26.413Z,11.98
2022-12-09T16:02:54.688Z,11.73
2022-12-09T16:05:25.300Z,11.70
2022-12-09T16:07:55.598Z,12.15
2022-12-09T16:10:26.733Z,11.13
2022-12-09T16:13:09.774Z,11.85
2022-12-09T16:15:45.001Z,11.63
2022-12-09T16:18:18.397Z,12.95
2022-12-09T16:20:58.980Z,12.85
2022-12-09T16:23:27.977Z,14.18
2022-12-09T16:26:06.411Z,11.85
2022-12-09T16:28:35.273Z,12.60
2022-12-09T16:31:18.262Z,12.60
2022-12-09T16:33:49.580Z,12.35
2022-12-09T16:36:20.243Z,13.80
2022-12-09T16:39:13.769Z,12.82
2022-12-09T16:41:58.598Z,12.93
2022-12-09T16:44:30.797Z,13.82
2022-12-09T16:47:12.565Z,13.10
2022-12-09T16:49:42.494Z,13.35
2022-12-09T16:52:13.743Z,14.25
2022-12-09T16:54:41.989Z,13.40
2022-12-09T16:57:13.275Z,13.27
2022-12-09T16:59:41.351Z,13.30
2022-12-09T17:02:16.755Z,13.02
2022-12-09T17:04:44.578Z,13.73
2022-12-09T17:07:12.335Z,13.43
2022-12-09T17:09:40.061Z,14.27
2022-12-09T17:12:08.234Z,14.93
2022-12-09T17:14:36.004Z,13.85
2022-12-09T17:17:03.854Z,12.77
2022-12-09T17:19:33.127Z,13.73
2022-12-09T17:22:00.887Z,14.25
2022-12-09T17:24:28.580Z,13.18
2022-12-09T17:26:56.242Z,14.15
2022-12-09T17:29:23.949Z,15.18
2022-12-09T17:31:52.303Z,14.70
2022-12-09T17:34:20.774Z,14.68
2022-12-09T17:36:49.870Z,14.18
2022-12-09T17:39:17.844Z,14.77
2022-12-09T17:41:45.514Z,14.07
2022-12-09T17:44:13.201Z,14.45
2022-12-09T17:46:40.873Z,14.05
2022-12-09T17:49:08.592Z,14.18
2022-12-09T17:51:36.740Z,14.95
2022-12-09T17:54:06.575Z,16.85
2022-12-09T17:56:34.840Z,15.35
2022-12-09T17:59:04.469Z,14.85
2022-12-09T18:01:34.064Z,15.43
2022-12-09T18:04:07.912Z,16.13
2022-12-09T18:06:37.666Z,14.13
2022-12-09T18:09:10.825Z,14.13
2022-12-09T18:11:38.832Z,14.23
2022-12-09T18:14:07.260Z,13.85
2022-12-09T18:16:34.996Z,14.02
2022-12-09T18:19:04.332Z,14.65
2022-12-09T18:21:32.325Z,13.75
2022-12-09T18:24:00.196Z,13.93
2022-12-09T18:26:32.943Z,14.88
2022-12-09T18:29:01.782Z,14.65
2022-12-09T18:31:29.713Z,14.77
2022-12-09T18:33:57.650Z,16.40
2022-12-09T18:36:27.571Z,13.52
2022-12-09T18:38:55.259Z,13.95
2022-12-09T18:41:25.121Z,14.73
2022-12-09T18:43:55.654Z,14.20
2022-12-09T18:46:26.917Z,14.50
2022-12-09T18:48:58.794Z,14.32
2022-12-09T18:51:27.452Z,13.80
2022-12-09T18:53:55.524Z,14.63
2022-12-09T18:56:23.227Z,15.32
2022-12-09T18:59:05.830Z,14.93
2022-12-09T19:01:39.229Z,13.40
2022-12-09T19:04:08.707Z,15.00
2022-12-09T19:06:38.303Z,15.43
2022-12-09T19:09:07.674Z,15.38
2022-12-09T19:11:37.501Z,15.32
2022-12-09T19:14:06.049Z,16.33
2022-12-09T19:16:35.954Z,14.32
2022-12-09T19:19:09.461Z,14.18
2022-12-09T19:21:38.136Z,14.95
2022-12-09T19:24:06.811Z,15.68
2022-12-09T19:26:36.357Z,15.02
2022-12-09T19:29:10.536Z,15.88
2022-12-09T19:31:41.932Z,14.07
2022-12-09T19:34:13.148Z,14.82
2022-12-09T19:36:41.181Z,14.43
2022-12-09T19:39:10.404Z,15.57
2022-12-09T19:41:40.372Z,14.57
2022-12-09T19:44:08.700Z,14.65
2022-12-09T19:46:38.336Z,14.55
2022-12-09T19:49:07.946Z,14.30
2022-12-09T19:51:35.658Z,15.43
2022-12-09T19:54:03.426Z,15.23
2022-12-09T19:56:31.443Z,16.38
2022-12-09T19:59:00.604Z,14.75
2022-12-09T20:01:30.321Z,15.85
2022-12-09T20:04:08.874Z,15.27
2022-12-09T20:06:43.837Z,15.27
2022-12-09T20:09:13.881Z,16.27
2022-12-09T20:11:42.738Z,15.88
2022-12-09T20:14:13.146Z,15.55
2022-12-09T20:16:41.273Z,15.50
2022-12-09T20:19:09.500Z,15.13
2022-12-09T20:21:37.686Z,13.70
2022-12-09T20:24:07.813Z,15.68
2022-12-09T20:26:38.060Z,13.77
2022-12-09T20:29:08.408Z,14.77
2022-12-09T20:31:37.585Z,15.73
2022-12-09T20:34:07.910Z,16.50
2022-12-09T20:36:37.875Z,16.38
2022-12-09T20:39:11.242Z,15.70
2022-12-09T20:41:39.232Z,16.52
2022-12-09T20:44:07.054Z,14.70
2022-12-09T20:46:35.560Z,14.88
2022-12-09T20:49:03.538Z,16.08
2022-12-09T20:51:33.866Z,15.48
2022-12-09T20:54:02.169Z,14.98
2022-12-09T20:56:31.314Z,14.57
2022-12-09T20:58:59.356Z,15.45
2022-12-09T21:01:28.987Z,14.98
2022-12-09T21:03:58.296Z,15.30
2022-12-09T21:06:29.368Z,16.25
2022-12-09T21:08:57.472Z,14.85
2022-12-09T21:11:26.434Z,15.48
2022-12-09T21:13:58.670Z,16.02
2022-12-09T21:16:28.909Z,15.60
2022-12-09T21:18:58.148Z,15.73
2022-12-09T21:21:27.556Z,16.33
2022-12-09T21:23:55.309Z,16.98
2022-12-09T21:26:24.630Z,15.43
2022-12-09T21:28:53.074Z,16.92
2022-12-09T21:31:24.583Z,16.30
2022-12-09T21:33:54.330Z,16.85
2022-12-09T21:36:24.854Z,16.88
2022-12-09T21:38:53.624Z,17.27
2022-12-09T21:41:23.530Z,16.25
2022-12-09T21:43:52.213Z,16.58
2022-12-09T21:46:23.353Z,16.70
2022-12-09T21:48:54.242Z,15.18
2022-12-09T21:51:24.373Z,16.30
2022-12-09T21:53:52.163Z,18.27
2022-12-09T21:56:22.612Z,15.98
2022-12-09T21:58:52.550Z,17.10
2022-12-09T22:01:23.890Z,16.23
2022-12-09T22:03:51.586Z,16.40
2022-12-09T22:06:19.400Z,16.30
2022-12-09T22:08:47.265Z,17.33
2022-12-09T22:11:17.669Z,16.85
2022-12-09T22:13:45.890Z,16.70
2022-12-09T22:16:16.325Z,17.27
2022-12-09T22:18:45.560Z,17.30
2022-12-09T22:21:24.646Z,16.27
2022-12-09T22:23:54.248Z,16.95
2022-12-09T22:26:22.725Z,15.80
2022-12-09T22:28:50.784Z,15.50
2022-12-09T22:31:21.341Z,16.73
2022-12-09T22:33:51.659Z,17.63
2022-12-09T22:36:20.294Z,17.23
2022-12-09T22:38:48.775Z,16.27
2022-12-09T22:41:18.815Z,16.02
2022-12-09T22:43:48.132Z,17.38
2022-12-09T22:46:17.529Z,17.08
2022-12-09T22:48:45.611Z,16.92
2022-12-09T22:51:16.305Z,16.63
2022-12-09T22:53:44.972Z,16.38
2022-12-09T22:56:13.526Z,16.77
2022-12-09T22:58:41.533Z,16.90
2022-12-09T23:01:14.245Z,16.70
2022-12-09T23:03:42.429Z,17.60
2022-12-09T23:06:10.561Z,16.17
2022-12-09T23:08:41.845Z,18.25
2022-12-09T23:11:16.403Z,18.25
2022-12-09T23:13:44.517Z,19.92
2022-12-09T23:16:15.369Z,18.35
2022-12-09T23:18:43.634Z,18.92
2022-12-09T23:21:16.431Z,17.52
2022-12-09T23:23:45.594Z,18.73
2022-12-09T23:26:16.500Z,17.83
2022-12-09T23:28:45.929Z,19.95
2022-12-09T23:31:15.702Z,20.05
2022-12-09T23:33:45.400Z,19.20
2022-12-09T23:36:14.815Z,19.52
2022-12-09T23:38:43.316Z,19.92
2022-12-09T23:41:13.603Z,19.27
2022-12-09T23:43:42.003Z,20.20
2022-12-09T23:46:15.748Z,20.02
2022-12-09T23:48:44.135Z,19.38
2022-12-09T23:51:13.112Z,20.65
2022-12-09T23:53:41.625Z,19.88
2022-12-09T23:56:13.483Z,20.75
2022-12-09T23:58:42.068Z,20.33
